Time;durP1;ratioP1;P1;durP2;ratioP2;P2;SDS_P1;SDS_P2;PMS_P1;PMS_P2;Temp;Humidity;BMP_temperature;BMP_pressure;BME280_temperature;BME280_humidity;BME280_pressure;Samples;Min_cycle;Max_cycle;Signal;HPM_P1;HPM_P2
2021/01/02 11:52:32;;;;;;;10.88;6.15;;;461.30;972.80;;;;;;4740472;22;20502;-70
2021/01/02 11:54:58;;;;;;;12.10;6.32;;;358.90;1152.00;;;;;;4963350;28;20043;-78
2021/01/02 11:57:24;;;;;;;11.00;6.75;;;333.20;1254.40;;;;;;4930365;28;20023;-70
2021/01/02 11:59:50;;;;;;;11.93;7.20;;;308.00;1305.60;;;;;;4941469;28;20073;-72
2021/01/02 12:02:15;;;;;;;12.40;7.32;;;307.80;1356.80;;;;;;4946483;28;20779;-72
2021/01/02 12:04:43;;;;;;;12.85;7.70;;;307.50;1382.40;;;;;;4951121;28;20030;-75
2021/01/02 12:07:09;;;;;;;11.55;7.38;;;307.50;1408.00;;;;;;4944855;28;20105;-71
2021/01/02 12:09:35;;;;;;;12.10;7.05;;;282.30;1382.40;;;;;;4949076;28;20859;-71
2021/01/02 12:12:00;;;;;;;13.65;7.50;;;307.40;1382.40;;;;;;4945555;28;20042;-70
2021/01/02 12:14:30;;;;;;;9.73;5.65;;;307.40;1664.00;;;;;;4941590;28;20063;-73
2021/01/02 12:16:58;;;;;;;15.57;7.80;;;282.50;1356.80;;;;;;4946844;28;20442;-71
2021/01/02 12:19:29;;;;;;;11.32;5.75;;;282.40;1408.00;;;;;;4944686;28;20058;-71
2021/01/02 12:22:01;;;;;;;9.82;5.95;;;282.40;1382.40;;;;;;4946717;28;20058;-73
2021/01/02 12:24:27;;;;;;;37.00;19.42;;;282.30;1356.80;;;;;;4949053;28;20908;-77
2021/01/02 12:26:58;;;;;;;17.10;8.15;;;282.50;1408.00;;;;;;4945013;28;20526;-67
2021/01/02 12:29:25;;;;;;;10.23;6.30;;;282.20;1408.00;;;;;;4952861;28;20104;-68
2021/01/02 12:31:54;;;;;;;18.52;10.10;;;282.40;1382.40;;;;;;4948935;28;20042;-68
2021/01/02 12:34:26;;;;;;;14.68;7.13;;;282.10;1408.00;;;;;;4957428;28;20053;-68
2021/01/02 12:36:53;;;;;;;11.95;5.95;;;281.60;1408.00;;;;;;4952762;28;20049;-74
2021/01/02 12:39:23;;;;;;;12.40;5.95;;;282.10;1382.40;;;;;;4941542;28;20019;-67
2021/01/02 12:41:49;;;;;;;13.43;6.38;;;282.00;1382.40;;;;;;4938945;28;20517;-73
2021/01/02 12:44:15;;;;;;;9.88;6.22;;;282.00;1408.00;;;;;;4938840;28;20034;-66
2021/01/02 12:46:47;;;;;;;10.20;6.13;;;282.10;1408.00;;;;;;4939531;28;20401;-77
2021/01/02 12:49:15;;;;;;;11.35;6.40;;;282.10;1433.60;;;;;;4941421;28;20046;-70
2021/01/02 12:51:41;;;;;;;10.13;5.95;;;282.10;1459.20;;;;;;4941894;28;20503;-72
2021/01/02 12:54:07;;;;;;;9.02;5.95;;;282.10;1433.60;;;;;;4944196;28;20015;-69
2021/01/02 12:56:33;;;;;;;10.18;5.60;;;282.10;1433.60;;;;;;4949633;28;20026;-74
2021/01/02 12:59:00;;;;;;;10.40;6.28;;;282.20;1408.00;;;;;;4950779;28;20031;-80
2021/01/02 13:01:26;;;;;;;11.27;5.70;;;282.30;1408.00;;;;;;4948387;28;20488;-74
2021/01/02 13:03:52;;;;;;;23.70;12.32;;;282.10;1408.00;;;;;;4939609;28;20369;-69
2021/01/02 13:06:18;;;;;;;33.95;17.55;;;282.20;1408.00;;;;;;4936653;28;20038;-78
2021/01/02 13:08:44;;;;;;;15.98;10.60;;;282.20;1408.00;;;;;;4939362;28;20129;-72
2021/01/02 13:11:11;;;;;;;11.63;7.05;;;282.20;1408.00;;;;;;4940460;28;20045;-67
2021/01/02 13:13:37;;;;;;;11.85;6.57;;;282.20;1433.60;;;;;;4936687;28;20031;-68
2021/01/02 13:16:04;;;;;;;10.00;6.80;;;282.20;1433.60;;;;;;4942354;28;20025;-68
2021/01/02 13:18:30;;;;;;;12.75;8.20;;;282.30;1433.60;;;;;;4935794;28;20035;-67
2021/01/02 13:20:57;;;;;;;14.50;7.57;;;282.30;1433.60;;;;;;4933006;28;20043;-67
2021/01/02 13:23:23;;;;;;;20.73;9.77;;;282.40;1433.60;;;;;;4940181;28;20425;-73
2021/01/02 13:25:49;;;;;;;14.73;7.78;;;282.20;1459.20;;;;;;4939325;28;20510;-74
2021/01/02 13:28:14;;;;;;;16.63;8.15;;;282.20;1433.60;;;;;;4937743;28;20053;-81
2021/01/02 13:30:40;;;;;;;17.00;9.68;;;282.10;1459.20;;;;;;4937822;28;20572;-78
2021/01/02 13:33:06;;;;;;;16.52;8.93;;;282.00;1484.80;;;;;;4930906;28;20038;-69
2021/01/02 13:35:32;;;;;;;13.07;7.82;;;282.00;1484.80;;;;;;4931589;28;20023;-70
2021/01/02 13:37:58;;;;;;;15.20;9.30;;;282.50;1484.80;;;;;;4934501;28;20037;-72
2021/01/02 13:40:24;;;;;;;17.73;10.18;;;281.80;1510.40;;;;;;4931025;28;20146;-72
2021/01/02 13:42:50;;;;;;;15.48;8.77;;;281.80;1510.40;;;;;;4926384;28;20472;-73
2021/01/02 13:45:15;;;;;;;12.50;8.38;;;281.60;1510.40;;;;;;4939953;28;20034;-80
2021/01/02 13:47:41;;;;;;;19.70;8.77;;;281.70;1510.40;;;;;;4936559;28;20401;-71
2021/01/02 13:50:07;;;;;;;15.25;9.30;;;281.90;1510.40;;;;;;4937171;28;20046;-71
2021/01/02 13:52:33;;;;;;;17.85;8.57;;;281.70;1510.40;;;;;;4925321;28;20250;-72
2021/01/02 13:54:59;;;;;;;14.38;8.48;;;281.70;1510.40;;;;;;4937927;28;20067;-72
2021/01/02 13:57:26;;;;;;;14.00;8.25;;;256.90;1484.80;;;;;;4937904;28;20027;-72
2021/01/02 13:59:53;;;;;;;15.05;9.65;;;256.80;1484.80;;;;;;4936125;28;20598;-72
2021/01/02 14:02:20;;;;;;;24.65;13.55;;;256.80;1484.80;;;;;;4934980;28;20039;-72
2021/01/02 14:04:47;;;;;;;12.88;9.23;;;256.70;1484.80;;;;;;4937558;28;20057;-72
2021/01/02 14:07:13;;;;;;;11.88;7.50;;;256.70;1484.80;;;;;;4930324;28;20029;-71
2021/01/02 14:09:38;;;;;;;10.52;7.00;;;256.60;1510.40;;;;;;4935788;28;20037;-72
2021/01/02 14:12:05;;;;;;;13.98;7.45;;;256.60;1510.40;;;;;;4936492;28;20511;-68
2021/01/02 14:14:33;;;;;;;12.25;7.38;;;256.50;1510.40;;;;;;4934386;28;20138;-71
2021/01/02 14:17:00;;;;;;;14.05;8.88;;;256.50;1536.00;;;;;;4937109;28;20030;-72
2021/01/02 14:19:28;;;;;;;19.23;11.75;;;256.40;1536.00;;;;;;4937808;28;20031;-71
2021/01/02 14:21:57;;;;;;;22.58;13.05;;;256.40;1536.00;;;;;;4930820;28;20033;-70
2021/01/02 14:24:24;;;;;;;14.05;8.52;;;256.40;1536.00;;;;;;4931519;28;20374;-69
2021/01/02 14:26:51;;;;;;;276.02;148.52;;;256.40;1510.40;;;;;;4937323;28;20969;-69
2021/01/02 14:29:29;;;;;;;70.88;39.58;;;256.20;1510.40;;;;;;4930500;28;20050;-69
2021/01/02 14:31:56;;;;;;;73.45;58.45;;;256.40;1510.40;;;;;;4935065;28;20598;-69
2021/01/02 14:34:24;;;;;;;120.65;71.20;;;256.50;1484.80;;;;;;4934149;28;20034;-70
2021/01/02 14:36:54;;;;;;;87.65;59.08;;;256.50;1510.40;;;;;;4938536;28;20836;-70
2021/01/02 14:39:21;;;;;;;39.00;26.95;;;256.40;1510.40;;;;;;4938143;28;20547;-69
2021/01/02 14:41:47;;;;;;;15.13;7.72;;;256.40;1484.80;;;;;;4935369;28;20069;-70
2021/01/02 14:44:13;;;;;;;21.45;14.48;;;256.30;1484.80;;;;;;4938616;28;20045;-69
2021/01/02 14:46:39;;;;;;;20.17;13.82;;;256.30;1484.80;;;;;;4935925;28;20843;-69
2021/01/02 14:49:07;;;;;;;12.77;6.82;;;256.30;1484.80;;;;;;4938293;28;20026;-70
2021/01/02 14:51:38;;;;;;;20.88;13.05;;;256.30;1484.80;;;;;;4940249;28;20059;-67
2021/01/02 14:54:06;;;;;;;20.48;14.07;;;256.30;1484.80;;;;;;4935437;28;20023;-70
2021/01/02 14:56:31;;;;;;;12.82;8.13;;;256.20;1484.80;;;;;;4930453;28;20159;-68
2021/01/02 14:58:57;;;;;;;12.50;7.00;;;256.30;1459.20;;;;;;4930006;28;20779;-70
2021/01/02 15:01:23;;;;;;;12.52;8.10;;;256.20;1484.80;;;;;;4938284;28;20831;-70
2021/01/02 15:03:49;;;;;;;11.07;6.70;;;256.20;1459.20;;;;;;4937726;28;20488;-69
2021/01/02 15:06:15;;;;;;;13.30;7.95;;;256.20;1459.20;;;;;;4938337;28;20030;-69
2021/01/02 15:08:42;;;;;;;13.00;7.25;;;256.20;1459.20;;;;;;4937831;28;20019;-71
2021/01/02 15:11:09;;;;;;;11.25;7.13;;;256.10;1484.80;;;;;;4937863;28;20054;-71
2021/01/02 15:13:35;;;;;;;12.45;8.07;;;256.10;1484.80;;;;;;4937941;28;20034;-70
2021/01/02 15:16:01;;;;;;;15.38;7.97;;;230.90;1484.80;;;;;;4936024;28;20122;-71
2021/01/02 15:18:27;;;;;;;14.02;7.32;;;256.10;1484.80;;;;;;4937319;28;20140;-68
2021/01/02 15:20:52;;;;;;;10.55;6.90;;;256.10;1484.80;;;;;;4936563;28;20528;-68
2021/01/02 15:23:18;;;;;;;9.88;6.35;;;256.10;1459.20;;;;;;4937511;28;20027;-69
2021/01/02 15:25:44;;;;;;;13.02;7.22;;;256.10;1459.20;;;;;;4927010;28;20033;-71
2021/01/02 15:28:11;;;;;;;10.70;6.88;;;256.10;1484.80;;;;;;4932973;28;20730;-70
2021/01/02 15:30:37;;;;;;;12.32;7.60;;;256.10;1459.20;;;;;;4936212;28;20035;-70
2021/01/02 15:33:03;;;;;;;13.30;7.63;;;256.10;1484.80;;;;;;4935950;28;20875;-70
2021/01/02 15:35:29;;;;;;;16.45;8.52;;;256.10;1484.80;;;;;;4929773;28;20094;-70
2021/01/02 15:37:55;;;;;;;16.00;9.60;;;256.00;1510.40;;;;;;4925590;28;20827;-68
2021/01/02 15:40:20;;;;;;;14.65;9.75;;;231.30;1536.00;;;;;;4935741;28;20539;-69
2021/01/02 15:42:46;;;;;;;19.63;10.60;;;231.20;1536.00;;;;;;4937441;28;20054;-69
2021/01/02 15:45:12;;;;;;;17.02;10.38;;;231.10;1587.20;;;;;;4935257;28;20027;-69
2021/01/02 15:47:38;;;;;;;15.48;10.15;;;231.00;1612.80;;;;;;4933074;28;20038;-71
2021/01/02 15:50:05;;;;;;;16.52;9.82;;;231.30;1587.20;;;;;;4936591;28;20365;-71
2021/01/02 15:52:31;;;;;;;16.10;10.32;;;230.90;1587.20;;;;;;4935400;28;20515;-69
2021/01/02 15:54:57;;;;;;;18.65;10.60;;;230.80;1638.40;;;;;;4935763;28;20026;-70
2021/01/02 15:57:24;;;;;;;16.48;10.60;;;230.90;1638.40;;;;;;4935725;28;20043;-69
2021/01/02 15:59:50;;;;;;;17.50;10.27;;;230.70;1664.00;;;;;;4935884;28;20019;-70
2021/01/02 16:02:16;;;;;;;16.42;10.38;;;230.70;1664.00;;;;;;4934691;28;20049;-70
2021/01/02 16:04:42;;;;;;;17.35;10.57;;;205.30;1664.00;;;;;;4934899;28;20642;-70
2021/01/02 16:07:11;;;;;;;17.42;10.95;;;230.50;1689.60;;;;;;4935353;28;20046;-70
2021/01/02 16:09:37;;;;;;;18.98;9.65;;;230.50;1689.60;;;;;;4934526;28;20140;-70
2021/01/02 16:12:07;;;;;;;17.20;10.32;;;;;;;;;;4935636;28;20038;-70
2021/01/02 16:14:33;;;;;;;18.13;10.65;;;;;;;;;;4934962;28;20429;-72
2021/01/02 16:17:00;;;;;;;26.75;16.80;;;230.50;1715.20;;;;;;4936133;28;20714;-70
2021/01/02 16:19:28;;;;;;;17.55;10.55;;;205.60;1740.80;;;;;;4931790;28;20437;-73
2021/01/02 16:22:12;;;;;;;16.13;10.98;;;205.70;1766.40;;;;;;4932306;28;20532;-70
2021/01/02 16:24:38;;;;;;;18.70;10.23;;;205.50;1766.40;;;;;;4936239;28;20077;-70
2021/01/02 16:27:09;;;;;;;15.30;9.75;;;205.50;1792.00;;;;;;4935682;28;20489;-70
2021/01/02 16:29:35;;;;;;;17.50;11.02;;;205.50;2099.20;;;;;;4934418;28;20023;-69
2021/01/02 16:32:02;;;;;;;18.48;11.25;;;205.30;1792.00;;;;;;4934329;28;20041;-69
2021/01/02 16:34:37;;;;;;;17.20;10.32;;;205.20;1817.60;;;;;;4927365;28;20030;-70
2021/01/02 16:37:09;;;;;;;18.25;11.55;;;205.20;1843.20;;;;;;4919463;28;20472;-71
2021/01/02 16:39:36;;;;;;;17.10;12.05;;;205.10;1843.20;;;;;;4938382;28;20093;-69
2021/01/02 16:42:03;;;;;;;19.67;12.00;;;205.00;1868.80;;;;;;4939113;28;20510;-70
2021/01/02 16:44:29;;;;;;;21.63;11.57;;;204.80;1843.20;;;;;;4939666;28;20023;-69
2021/01/02 16:46:59;;;;;;;16.20;11.48;;;205.40;1843.20;;;;;;4938841;28;20312;-70
2021/01/02 16:49:25;;;;;;;19.77;11.98;;;204.80;1843.20;;;;;;4938338;28;20606;-71
2021/01/02 16:51:56;;;;;;;19.38;11.60;;;204.90;1843.20;;;;;;4936454;28;20579;-72
2021/01/02 16:54:21;;;;;;;20.00;12.02;;;204.80;1843.20;;;;;;4934107;28;20206;-70
2021/01/02 16:56:47;;;;;;;21.05;10.98;;;204.80;1817.60;;;;;;4935550;28;20031;-71
2021/01/02 16:59:13;;;;;;;19.85;10.93;;;204.80;1817.60;;;;;;4936877;28;20027;-71
2021/01/02 17:01:39;;;;;;;17.77;10.27;;;204.80;1817.60;;;;;;4938156;28;20035;-70
2021/01/02 17:04:05;;;;;;;14.60;9.38;;;204.80;1817.60;;;;;;4935786;28;20030;-70
2021/01/02 17:06:30;;;;;;;13.05;8.43;;;204.90;1792.00;;;;;;4939029;28;20035;-70
2021/01/02 17:08:57;;;;;;;13.07;8.48;;;204.80;1766.40;;;;;;4936322;28;20034;-70
2021/01/02 17:11:26;;;;;;;13.10;8.93;;;205.00;1766.40;;;;;;4931226;28;20046;-69
2021/01/02 17:13:52;;;;;;;12.18;8.25;;;205.10;1740.80;;;;;;4938448;28;20022;-68
2021/01/02 17:16:25;;;;;;;13.82;8.60;;;205.20;1715.20;;;;;;4938694;28;20157;-71
2021/01/02 17:18:51;;;;;;;16.45;9.82;;;205.40;1715.20;;;;;;4936897;28;20030;-69
2021/01/02 17:21:17;;;;;;;16.38;10.40;;;205.20;1715.20;;;;;;4933705;28;20544;-68
2021/01/02 17:23:43;;;;;;;18.23;10.77;;;205.10;1715.20;;;;;;4937577;28;20031;-70
2021/01/02 17:26:10;;;;;;;16.38;10.52;;;205.10;1740.80;;;;;;4937494;28;20440;-70
2021/01/02 17:28:36;;;;;;;19.83;11.27;;;205.00;1740.80;;;;;;4943268;28;20639;-69
2021/01/02 17:31:02;;;;;;;15.77;9.98;;;205.00;1740.80;;;;;;4936718;28;20104;-69
2021/01/02 17:33:28;;;;;;;17.60;10.07;;;204.90;1740.80;;;;;;4938377;28;20559;-70
2021/01/02 17:35:53;;;;;;;29.05;10.50;;;204.90;1740.80;;;;;;4931781;28;20043;-70
2021/01/02 17:38:19;;;;;;;15.18;9.55;;;180.00;1766.40;;;;;;4938284;28;20523;-70
2021/01/02 17:40:45;;;;;;;16.33;9.65;;;204.80;1740.80;;;;;;4938040;28;20156;-70
2021/01/02 17:43:10;;;;;;;15.63;10.00;;;180.10;1766.40;;;;;;4938304;28;20182;-70
2021/01/02 17:45:38;;;;;;;15.50;9.90;;;180.10;1740.80;;;;;;4937270;28;20799;-70
2021/01/02 17:48:05;;;;;;;15.57;9.05;;;180.00;1740.80;;;;;;4937770;28;20523;-70
2021/01/02 17:50:33;;;;;;;13.18;8.95;;;180.00;1766.40;;;;;;4937587;28;20038;-70
2021/01/02 17:52:59;;;;;;;15.82;9.13;;;179.90;1766.40;;;;;;4937913;28;20062;-69
2021/01/02 17:55:25;;;;;;;13.70;9.57;;;179.80;1766.40;;;;;;4936240;28;20542;-69
2021/01/02 17:57:50;;;;;;;15.27;8.88;;;179.80;1766.40;;;;;;4936825;28;20030;-70
2021/01/02 18:00:17;;;;;;;14.70;9.23;;;179.70;1766.40;;;;;;4936942;28;20177;-69
2021/01/02 18:02:42;;;;;;;14.57;8.23;;;179.70;1792.00;;;;;;4934011;28;20035;-69
2021/01/02 18:05:09;;;;;;;14.15;9.07;;;179.70;1792.00;;;;;;4939888;28;20022;-67
2021/01/02 18:07:35;;;;;;;15.45;9.73;;;179.60;1792.00;;;;;;4931898;28;20635;-69
2021/01/02 18:10:00;;;;;;;14.30;10.07;;;179.80;1792.00;;;;;;4939486;28;20023;-70
2021/01/02 18:12:26;;;;;;;13.73;9.30;;;179.50;1792.00;;;;;;4933258;28;20848;-72
2021/01/02 18:14:52;;;;;;;15.77;9.65;;;154.50;1792.00;;;;;;4933477;28;20876;-70
2021/01/02 18:17:17;;;;;;;12.40;8.35;;;179.50;1792.00;;;;;;4934928;28;20104;-69
2021/01/02 18:19:43;;;;;;;13.50;8.43;;;179.50;1792.00;;;;;;4940291;28;20054;-69
2021/01/02 18:22:09;;;;;;;14.10;9.15;;;179.60;1792.00;;;;;;4939247;28;20047;-70
2021/01/02 18:24:34;;;;;;;13.65;8.63;;;179.50;1792.00;;;;;;4928850;28;20496;-69
2021/01/02 18:27:03;;;;;;;15.07;9.13;;;179.50;1792.00;;;;;;4944360;28;20026;-70
2021/01/02 18:29:29;;;;;;;15.35;8.20;;;179.50;1792.00;;;;;;4939951;28;20497;-70
2021/01/02 18:31:56;;;;;;;13.95;8.60;;;179.50;1792.00;;;;;;4931933;28;20039;-70
2021/01/02 18:34:24;;;;;;;13.73;8.73;;;179.50;1792.00;;;;;;4923600;28;20552;-69
2021/01/02 18:37:02;;;;;;;17.48;8.85;;;179.50;1792.00;;;;;;4938438;28;20400;-70
2021/01/02 18:39:28;;;;;;;16.02;9.52;;;179.50;1792.00;;;;;;4937359;28;20023;-70
2021/01/02 18:41:59;;;;;;;12.57;8.25;;;179.50;1792.00;;;;;;4937734;28;20105;-70
2021/01/02 18:44:26;;;;;;;13.77;8.18;;;180.10;1792.00;;;;;;4939012;28;20035;-69
2021/01/02 18:46:58;;;;;;;15.88;10.05;;;179.50;1792.00;;;;;;4932970;28;20043;-71
2021/01/02 18:49:24;;;;;;;18.58;11.68;;;179.50;1817.60;;;;;;4941042;28;20034;-69
2021/01/02 18:51:50;;;;;;;14.57;9.05;;;179.50;1817.60;;;;;;4937387;28;20074;-71
2021/01/02 18:54:18;;;;;;;17.52;10.00;;;179.50;1817.60;;;;;;4938641;28;20843;-69
2021/01/02 18:56:48;;;;;;;15.68;10.25;;;179.50;1817.60;;;;;;4939944;28;20029;-70
2021/01/02 18:59:14;;;;;;;17.65;9.80;;;179.50;1817.60;;;;;;4936500;28;20031;-69
2021/01/02 19:01:49;;;;;;;15.40;10.52;;;179.40;1817.60;;;;;;4939077;28;20950;-71
2021/01/02 19:04:16;;;;;;;18.27;10.35;;;179.40;1817.60;;;;;;4936086;28;20093;-70
2021/01/02 19:06:48;;;;;;;14.32;9.82;;;179.40;1817.60;;;;;;4935382;28;20059;-69
2021/01/02 19:09:14;;;;;;;13.73;9.73;;;179.30;1817.60;;;;;;4933716;28;20426;-72
2021/01/02 19:11:40;;;;;;;13.73;9.63;;;179.30;1817.60;;;;;;4931086;28;20583;-71
2021/01/02 19:14:05;;;;;;;13.80;8.80;;;179.30;1817.60;;;;;;4935676;28;20855;-70
2021/01/02 19:16:33;;;;;;;14.88;9.18;;;179.30;1843.20;;;;;;4938438;28;20023;-69
2021/01/02 19:19:00;;;;;;;16.10;9.25;;;154.40;1843.20;;;;;;4946813;28;20031;-76
2021/01/02 19:21:43;;;;;;;14.18;9.23;;;179.20;1843.20;;;;;;4942199;28;20417;-70
2021/01/02 19:24:11;;;;;;;14.98;9.43;;;179.20;1868.80;;;;;;4935216;28;20038;-69
2021/01/02 19:26:37;;;;;;;14.68;8.38;;;154.50;1868.80;;;;;;4931106;28;20031;-68
2021/01/02 19:29:03;;;;;;;15.70;9.85;;;154.30;1868.80;;;;;;4930364;28;20070;-70
2021/01/02 19:31:32;;;;;;;15.68;10.40;;;154.40;1868.80;;;;;;4932251;28;20035;-67
2021/01/02 19:33:59;;;;;;;16.48;10.27;;;154.40;1868.80;;;;;;4935232;28;20129;-73
2021/01/02 19:36:33;;;;;;;21.65;12.85;;;154.40;1868.80;;;;;;4933262;28;20037;-70
2021/01/02 19:39:03;;;;;;;17.95;11.07;;;154.30;1894.40;;;;;;4934145;28;20066;-69
2021/01/02 19:41:41;;;;;;;19.50;10.80;;;154.30;1894.40;;;;;;4937091;28;20031;-69
2021/01/02 19:44:08;;;;;;;20.15;13.05;;;154.30;1894.40;;;;;;4937555;28;20098;-80
2021/01/02 19:46:35;;;;;;;17.10;10.68;;;154.50;1894.40;;;;;;4938296;28;20027;-69
2021/01/02 19:49:01;;;;;;;22.40;13.10;;;154.50;1894.40;;;;;;4937935;28;20035;-68
2021/01/02 19:51:27;;;;;;;16.58;11.30;;;154.30;1894.40;;;;;;4935903;28;20051;-68
2021/01/02 19:53:53;;;;;;;18.25;10.57;;;154.30;1894.40;;;;;;4938233;28;20023;-70
2021/01/02 19:56:23;;;;;;;19.08;10.93;;;154.30;1894.40;;;;;;4935648;28;20496;-69
2021/01/02 19:58:49;;;;;;;18.85;10.57;;;154.30;1894.40;;;;;;4938063;28;20038;-67
2021/01/02 20:01:19;;;;;;;16.98;10.90;;;154.30;1868.80;;;;;;4933205;28;20036;-67
2021/01/02 20:03:45;;;;;;;18.42;11.57;;;154.30;1894.40;;;;;;4935886;28;20122;-70
2021/01/02 20:06:13;;;;;;;18.02;10.77;;;154.30;1894.40;;;;;;4936777;28;20456;-68
2021/01/02 20:08:40;;;;;;;16.65;10.70;;;154.30;1894.40;;;;;;4936147;28;20041;-70
2021/01/02 20:11:10;;;;;;;19.25;12.05;;;154.30;1894.40;;;;;;4935267;28;20113;-70
2021/01/02 20:13:36;;;;;;;16.02;11.07;;;154.20;1894.40;;;;;;4939490;28;20095;-86
2021/01/02 20:16:03;;;;;;;17.40;11.30;;;154.20;1894.40;;;;;;4938961;28;20108;-72
2021/01/02 20:18:28;;;;;;;16.58;10.52;;;179.30;1894.40;;;;;;4939020;28;20026;-68
2021/01/02 20:20:54;;;;;;;14.13;9.23;;;179.30;1894.40;;;;;;4941386;28;20033;-68
2021/01/02 20:23:20;;;;;;;14.95;9.32;;;154.30;1894.40;;;;;;4940797;28;20807;-68
2021/01/02 20:25:45;;;;;;;19.10;11.30;;;154.20;1920.00;;;;;;4941949;28;20031;-68
2021/01/02 20:28:11;;;;;;;16.42;9.95;;;154.00;1920.00;;;;;;4942880;28;20122;-68
2021/01/02 20:30:37;;;;;;;13.52;9.98;;;154.10;1920.00;;;;;;4933204;28;20035;-68
2021/01/02 20:33:10;;;;;;;17.00;10.23;;;154.10;1920.00;;;;;;4930723;28;20035;-68
2021/01/02 20:35:36;;;;;;;18.20;11.98;;;154.10;1920.00;;;;;;4935712;28;20113;-67
2021/01/02 20:38:02;;;;;;;19.23;12.65;;;154.10;1920.00;;;;;;4937999;28;20140;-74
2021/01/02 20:40:28;;;;;;;17.10;11.07;;;154.10;1920.00;;;;;;4937424;28;20832;-71
2021/01/02 20:42:56;;;;;;;19.02;10.35;;;154.20;1894.40;;;;;;4959017;28;20027;-69
2021/01/02 20:45:23;;;;;;;15.52;9.95;;;154.40;1868.80;;;;;;4971265;28;20106;-71
2021/01/02 20:47:49;;;;;;;16.80;11.13;;;154.50;1843.20;;;;;;4983097;28;20403;-69
2021/01/02 20:50:15;;;;;;;18.73;11.30;;;179.30;1843.20;;;;;;4966871;28;20026;-70
2021/01/02 20:52:41;;;;;;;18.23;11.38;;;154.50;1843.20;;;;;;4981289;28;20051;-70
2021/01/02 20:55:08;;;;;;;18.85;12.45;;;179.20;1817.60;;;;;;4975681;28;20503;-68
2021/01/02 20:57:34;;;;;;;19.95;12.35;;;179.20;1843.20;;;;;;4967671;28;20122;-69
2021/01/02 21:00:00;;;;;;;21.38;12.48;;;179.20;1817.60;;;;;;4973948;28;20031;-70
2021/01/02 21:02:26;;;;;;;18.10;11.60;;;179.20;1843.20;;;;;;4972011;28;20362;-71
2021/01/02 21:04:52;;;;;;;19.73;11.98;;;154.50;1843.20;;;;;;4972876;28;20023;-70
2021/01/02 21:07:18;;;;;;;16.42;10.95;;;154.50;1843.20;;;;;;4971942;28;20385;-70
2021/01/02 21:09:44;;;;;;;19.35;11.52;;;154.50;1843.20;;;;;;4976359;28;20029;-69
2021/01/02 21:12:12;;;;;;;15.13;10.98;;;179.20;1843.20;;;;;;4977995;28;20472;-69
2021/01/02 21:14:40;;;;;;;20.85;13.00;;;179.20;1817.60;;;;;;4974125;28;20575;-69
2021/01/02 21:17:09;;;;;;;17.70;11.70;;;179.30;1817.60;;;;;;4969473;28;20034;-69
2021/01/02 21:19:35;;;;;;;19.73;12.38;;;179.30;1817.60;;;;;;4974791;28;20037;-70
2021/01/02 21:22:27;;;;;;;16.02;10.93;;;179.30;1817.60;;;;;;4973624;28;20476;-70
2021/01/02 21:24:53;;;;;;;17.38;11.52;;;179.30;1817.60;;;;;;4965889;28;20039;-70
2021/01/02 21:27:23;;;;;;;15.98;10.38;;;179.50;1792.00;;;;;;4975326;28;20030;-69
2021/01/02 21:29:49;;;;;;;16.45;10.90;;;179.50;1792.00;;;;;;4975877;28;20027;-69
2021/01/02 21:32:18;;;;;;;14.88;9.68;;;179.60;1792.00;;;;;;4964226;28;20086;-70
2021/01/02 21:34:45;;;;;;;16.88;10.32;;;179.70;1766.40;;;;;;4976388;28;20022;-71
2021/01/02 21:37:12;;;;;;;15.88;10.70;;;179.70;1766.40;;;;;;4975670;28;20034;-70
2021/01/02 21:39:39;;;;;;;16.90;11.45;;;179.90;1766.40;;;;;;4972199;28;20046;-70
2021/01/02 21:42:10;;;;;;;20.08;11.65;;;179.70;1766.40;;;;;;4974549;28;20388;-70
2021/01/02 21:44:36;;;;;;;17.65;12.23;;;179.70;1766.40;;;;;;4974527;28;20472;-71
2021/01/02 21:47:05;;;;;;;17.67;11.38;;;179.70;1766.40;;;;;;4976121;28;20040;-70
2021/01/02 21:49:33;;;;;;;18.02;11.88;;;179.70;1792.00;;;;;;4975974;28;20023;-71
2021/01/02 21:52:00;;;;;;;19.55;12.43;;;179.60;1817.60;;;;;;4982836;28;20137;-70
2021/01/02 21:54:27;;;;;;;17.48;13.13;;;179.50;1843.20;;;;;;4974456;28;20076;-72
2021/01/02 21:56:57;;;;;;;17.85;13.13;;;179.30;1868.80;;;;;;4975600;28;20035;-70
2021/01/02 21:59:24;;;;;;;25.77;14.48;;;154.50;1894.40;;;;;;4975231;28;20054;-72
2021/01/02 22:01:49;;;;;;;19.98;13.40;;;154.40;1920.00;;;;;;4963882;28;20376;-71
2021/01/02 22:04:15;;;;;;;19.05;13.25;;;154.40;1945.60;;;;;;4974278;28;20019;-71
2021/01/02 22:06:43;;;;;;;19.92;13.30;;;154.30;1945.60;;;;;;4974042;28;20392;-71
2021/01/02 22:09:09;;;;;;;20.20;12.63;;;154.40;1945.60;;;;;;4974902;28;20030;-71
2021/01/02 22:11:36;;;;;;;19.13;11.82;;;154.30;1945.60;;;;;;4974797;28;20031;-71
2021/01/02 22:14:03;;;;;;;19.35;13.65;;;154.40;1945.60;;;;;;4968768;28;20396;-70
2021/01/02 22:16:29;;;;;;;18.30;13.00;;;154.40;1945.60;;;;;;4976615;28;20030;-70
2021/01/02 22:18:56;;;;;;;20.27;12.90;;;154.40;1945.60;;;;;;4983213;28;20033;-70
2021/01/02 22:21:22;;;;;;;17.35;12.82;;;154.50;1945.60;;;;;;4973712;28;20034;-73
2021/01/02 22:23:48;;;;;;;18.48;12.52;;;154.50;1945.60;;;;;;4976520;28;20506;-70
2021/01/02 22:26:16;;;;;;;19.25;13.10;;;154.20;1945.60;;;;;;4972007;28;20543;-74
2021/01/02 22:28:44;;;;;;;20.45;12.85;;;154.50;1945.60;;;;;;4974562;28;20031;-68
2021/01/02 22:31:10;;;;;;;19.17;12.65;;;179.20;1920.00;;;;;;4975266;28;20038;-71
2021/01/02 22:33:36;;;;;;;21.15;14.25;;;179.20;1920.00;;;;;;4973741;28;20027;-71
2021/01/02 22:36:03;;;;;;;20.30;14.52;;;179.20;1945.60;;;;;;4972032;28;20113;-71
2021/01/02 22:38:29;;;;;;;19.98;13.77;;;179.20;1945.60;;;;;;4973526;28;20031;-71
2021/01/02 22:41:00;;;;;;;23.05;14.88;;;179.20;1920.00;;;;;;4975363;28;20035;-71
2021/01/02 22:43:27;;;;;;;21.60;14.35;;;179.30;1920.00;;;;;;4974079;28;20511;-70
2021/01/02 22:45:53;;;;;;;21.42;14.45;;;179.30;1920.00;;;;;;4980459;28;20033;-71
2021/01/02 22:48:20;;;;;;;22.73;17.52;;;179.30;1920.00;;;;;;4975525;28;20030;-71
2021/01/02 22:50:51;;;;;;;19.27;13.32;;;179.40;1920.00;;;;;;4974383;28;20029;-69
2021/01/02 22:53:16;;;;;;;19.80;13.48;;;179.30;1920.00;;;;;;4974767;28;20473;-69
2021/01/02 22:55:42;;;;;;;20.88;14.18;;;179.40;1920.00;;;;;;4973096;28;20110;-70
2021/01/02 22:58:08;;;;;;;19.40;13.43;;;179.30;1920.00;;;;;;4971382;28;20074;-69
2021/01/02 23:00:37;;;;;;;17.60;12.90;;;179.30;1920.00;;;;;;4974533;28;20102;-68
2021/01/02 23:03:03;;;;;;;19.35;12.27;;;179.40;1920.00;;;;;;4974584;28;20042;-72
2021/01/02 23:05:29;;;;;;;20.85;12.63;;;179.50;1894.40;;;;;;4966930;28;20481;-72
2021/01/02 23:07:55;;;;;;;17.55;11.38;;;179.50;1868.80;;;;;;4969986;28;20031;-70
2021/01/02 23:10:23;;;;;;;15.10;10.55;;;179.70;1868.80;;;;;;4974600;28;20053;-70
2021/01/02 23:12:52;;;;;;;15.68;10.30;;;179.80;1843.20;;;;;;4973546;28;20101;-70
2021/01/02 23:15:20;;;;;;;12.98;9.43;;;179.90;1843.20;;;;;;4970769;28;20042;-69
2021/01/02 23:17:46;;;;;;;16.17;10.13;;;180.10;1817.60;;;;;;4963812;28;20125;-71
2021/01/02 23:20:14;;;;;;;14.52;9.82;;;179.60;1792.00;;;;;;4973217;28;20023;-70
2021/01/02 23:22:48;;;;;;;13.90;9.07;;;204.80;1792.00;;;;;;4973740;28;20037;-70
2021/01/02 23:25:23;;;;;;;13.30;9.73;;;204.90;1792.00;;;;;;4974356;28;20019;-70
2021/01/02 23:27:49;;;;;;;14.80;9.48;;;205.00;1766.40;;;;;;4965160;28;20030;-71
2021/01/02 23:30:19;;;;;;;12.85;9.70;;;205.00;1766.40;;;;;;4966704;28;20030;-71
2021/01/02 23:32:49;;;;;;;15.95;10.48;;;205.00;1766.40;;;;;;4973403;28;20038;-72
2021/01/02 23:35:16;;;;;;;15.18;10.50;;;205.00;1766.40;;;;;;4973404;28;20110;-70
2021/01/02 23:37:41;;;;;;;14.13;10.50;;;204.90;1766.40;;;;;;4972067;28;20031;-70
2021/01/02 23:40:08;;;;;;;16.15;10.98;;;204.90;1766.40;;;;;;4962655;28;20037;-70
2021/01/02 23:42:33;;;;;;;12.80;9.80;;;204.90;1766.40;;;;;;4969981;28;20190;-70
2021/01/02 23:44:59;;;;;;;13.98;9.30;;;204.90;1766.40;;;;;;4973040;28;20507;-71
2021/01/02 23:47:25;;;;;;;12.73;9.82;;;204.90;1792.00;;;;;;4973080;28;20031;-70
2021/01/02 23:49:50;;;;;;;16.83;10.40;;;204.90;1766.40;;;;;;4972226;28;20023;-71
2021/01/02 23:52:16;;;;;;;18.92;10.77;;;204.90;1766.40;;;;;;4971778;28;20136;-70
2021/01/02 23:54:42;;;;;;;13.80;9.70;;;205.00;1766.40;;;;;;4973925;28;20026;-72